createdAt,value
2024-05-09T00:04:54.154Z,3.80
2024-05-09T00:09:57.126Z,2.10
2024-05-09T00:15:00.125Z,2.45
2024-05-09T00:20:10.914Z,3.30
2024-05-09T00:25:17.386Z,2.30
2024-05-09T00:30:28.010Z,1.60
2024-05-09T00:35:36.713Z,2.17
2024-05-09T00:40:42.343Z,1.77
2024-05-09T00:45:47.550Z,1.35
2024-05-09T00:50:51.637Z,1.50
2024-05-09T00:55:55.475Z,1.33
2024-05-09T01:01:01.641Z,1.50
2024-05-09T01:06:06.543Z,1.42
2024-05-09T01:16:14.416Z,1.50
2024-05-09T01:21:17.842Z,1.20
2024-05-09T01:26:21.611Z,1.13
2024-05-09T01:31:26.582Z,0.98
2024-05-09T01:36:30.323Z,1.25
2024-05-09T01:41:33.550Z,1.17
2024-05-09T01:46:36.569Z,1.48
2024-05-09T01:51:40.530Z,1.00
2024-05-09T01:56:43.731Z,0.95
2024-05-09T02:01:56.602Z,1.13
2024-05-09T02:07:01.726Z,1.50
2024-05-09T02:12:05.104Z,0.90
2024-05-09T02:17:09.456Z,1.00
2024-05-09T02:22:13.790Z,1.02
2024-05-09T02:27:16.770Z,1.52
2024-05-09T02:32:20.938Z,1.13
2024-05-09T02:37:24.566Z,1.60
2024-05-09T02:42:27.477Z,0.90
2024-05-09T02:47:30.657Z,1.10
2024-05-09T02:52:34.548Z,1.30
2024-05-09T02:57:37.528Z,1.30
2024-05-09T03:02:45.270Z,0.90
2024-05-09T03:07:49.337Z,1.20
2024-05-09T03:12:53.434Z,1.20
2024-05-09T03:17:56.544Z,1.00
2024-05-09T03:23:01.889Z,1.10
2024-05-09T03:28:05.333Z,0.90
2024-05-09T03:33:20.450Z,0.77
2024-05-09T03:38:24.370Z,1.00
2024-05-09T03:43:27.816Z,0.93
2024-05-09T03:48:35.690Z,1.10
2024-05-09T03:53:40.959Z,1.30
2024-05-09T03:58:43.965Z,1.40
2024-05-09T04:03:47.712Z,1.83
2024-05-09T04:08:52.815Z,1.27
2024-05-09T04:13:56.302Z,1.25
2024-05-09T04:18:59.843Z,1.50
2024-05-09T04:24:04.603Z,1.33
2024-05-09T04:29:08.403Z,1.27
2024-05-09T04:34:12.404Z,2.22
2024-05-09T04:39:15.883Z,2.25
2024-05-09T04:44:18.852Z,1.60
2024-05-09T04:49:22.256Z,1.70
2024-05-09T04:54:33.840Z,1.35
2024-05-09T04:59:39.721Z,2.00
2024-05-09T05:04:43.871Z,1.88
2024-05-09T05:09:46.974Z,1.58
2024-05-09T05:14:50.038Z,2.08
2024-05-09T05:19:55.688Z,3.38
2024-05-09T05:24:58.870Z,1.83
2024-05-09T05:30:01.824Z,1.42
2024-05-09T05:35:07.452Z,1.90
2024-05-09T05:40:14.629Z,2.00
2024-05-09T05:45:21.055Z,2.10
2024-05-09T05:50:32.431Z,2.60
2024-05-09T05:55:42.336Z,2.30
2024-05-09T06:00:45.622Z,2.33
2024-05-09T06:05:48.852Z,2.40
2024-05-09T06:10:52.639Z,2.80
2024-05-09T06:15:55.591Z,2.30
2024-05-09T06:20:59.557Z,2.40
2024-05-09T06:26:03.146Z,2.35
2024-05-09T06:31:07.127Z,2.90
2024-05-09T06:36:10.455Z,2.75
2024-05-09T06:41:13.552Z,2.70
2024-05-09T06:46:16.399Z,3.35
2024-05-09T06:51:19.487Z,2.97
2024-05-09T06:56:23.940Z,2.88
2024-05-09T07:01:26.950Z,3.10
2024-05-09T07:06:30.467Z,2.83
2024-05-09T07:11:34.183Z,2.88
2024-05-09T07:16:37.166Z,3.25
2024-05-09T07:21:40.534Z,2.80
2024-05-09T07:26:43.633Z,3.00
2024-05-09T07:31:46.640Z,3.00
2024-05-09T07:36:50.153Z,2.92
2024-05-09T07:41:53.121Z,2.70
2024-05-09T07:48:14.001Z,2.60
2024-05-09T07:57:25.276Z,2.92
2024-05-09T08:02:29.245Z,2.47
2024-05-09T08:07:35.630Z,1.80
2024-05-09T08:12:38.662Z,1.80
2024-05-09T08:17:41.625Z,1.95
2024-05-09T08:22:45.041Z,1.77
2024-05-09T08:27:48.479Z,1.52
2024-05-09T08:32:51.901Z,1.88
2024-05-09T08:37:55.494Z,1.70
2024-05-09T08:42:58.716Z,2.00
2024-05-09T08:48:06.438Z,1.30
2024-05-09T08:53:10.583Z,2.28
2024-05-09T08:58:16.793Z,1.55
2024-05-09T09:03:23.244Z,1.02
2024-05-09T09:08:27.654Z,1.83
2024-05-09T09:13:30.857Z,1.77
2024-05-09T09:18:34.826Z,1.30
2024-05-09T09:23:40.338Z,1.45
2024-05-09T09:28:45.298Z,1.25
2024-05-09T09:33:48.919Z,1.08
2024-05-09T09:38:52.879Z,1.60
2024-05-09T09:43:57.817Z,1.10
2024-05-09T09:49:01.065Z,1.20
2024-05-09T09:54:05.574Z,1.20
2024-05-09T09:59:09.010Z,1.10
2024-05-09T10:04:13.482Z,1.20
2024-05-09T10:09:18.710Z,1.20
2024-05-09T10:14:22.466Z,1.57
2024-05-09T10:19:28.861Z,1.33
2024-05-09T10:24:51.987Z,1.70
2024-05-09T10:29:59.841Z,1.90
2024-05-09T10:35:07.648Z,1.40
2024-05-09T10:40:23.353Z,2.40
2024-05-09T10:45:32.375Z,1.90
2024-05-09T10:50:36.145Z,1.52
2024-05-09T10:55:39.844Z,1.10
2024-05-09T11:00:43.174Z,1.25
2024-05-09T11:05:48.394Z,1.30
2024-05-09T11:10:54.033Z,1.60
2024-05-09T11:15:57.906Z,1.70
2024-05-09T11:21:01.532Z,1.40
2024-05-09T11:26:04.798Z,1.50
2024-05-09T11:31:11.157Z,1.70
2024-05-09T11:36:15.053Z,1.08
2024-05-09T11:41:21.361Z,1.20
2024-05-09T11:46:25.375Z,1.20
2024-05-09T11:51:29.828Z,1.40
2024-05-09T11:56:33.855Z,1.65
2024-05-09T12:01:36.997Z,1.17
2024-05-09T12:06:41.472Z,0.90
2024-05-09T12:11:44.801Z,1.10
2024-05-09T12:16:48.088Z,1.10
2024-05-09T12:21:51.777Z,1.00
2024-05-09T12:26:56.175Z,1.40
2024-05-09T12:31:59.625Z,1.42
2024-05-09T12:37:03.561Z,2.70
2024-05-09T12:42:09.771Z,1.23
2024-05-09T12:47:15.302Z,1.30
2024-05-09T12:52:18.969Z,2.08
2024-05-09T12:57:23.726Z,2.58
2024-05-09T13:02:27.428Z,2.40
2024-05-09T13:07:32.590Z,2.45
2024-05-09T13:12:36.794Z,2.50
2024-05-09T13:17:40.327Z,3.38
2024-05-09T13:22:45.576Z,2.30
2024-05-09T13:27:49.419Z,2.63
2024-05-09T13:32:54.885Z,3.20
2024-05-09T13:38:00.136Z,3.45
2024-05-09T13:43:06.130Z,4.65
2024-05-09T13:48:11.188Z,5.13
2024-05-09T13:53:15.629Z,5.53
2024-05-09T13:58:19.440Z,6.00
2024-05-09T14:03:23.586Z,6.50
2024-05-09T14:08:28.251Z,6.82
2024-05-09T14:13:31.350Z,6.28
2024-05-09T14:18:35.535Z,5.38
2024-05-09T14:23:39.394Z,5.15
2024-05-09T14:28:42.877Z,5.00
2024-05-09T14:33:46.848Z,5.88
2024-05-09T14:38:50.894Z,6.03
2024-05-09T14:43:54.915Z,5.78
2024-05-09T14:49:00.572Z,6.10
2024-05-09T14:54:05.026Z,5.38
2024-05-09T14:59:08.945Z,4.60
2024-05-09T15:04:14.068Z,4.78
2024-05-09T15:09:17.857Z,4.57
2024-05-09T15:14:20.926Z,4.35
2024-05-09T15:19:24.206Z,3.70
2024-05-09T15:24:28.418Z,3.85
2024-05-09T15:29:32.485Z,4.45
2024-05-09T15:34:35.541Z,4.90
2024-05-09T15:39:39.897Z,4.82
2024-05-09T15:44:42.928Z,6.38
2024-05-09T15:49:48.042Z,3.53
2024-05-09T15:54:51.058Z,3.77
2024-05-09T15:59:54.583Z,3.28
2024-05-09T16:04:58.836Z,2.60
2024-05-09T16:10:02.490Z,2.60
2024-05-09T16:15:07.110Z,3.33
2024-05-09T16:20:15.151Z,3.40
2024-05-09T16:25:21.967Z,2.90
2024-05-09T16:30:31.732Z,2.42
2024-05-09T16:35:40.023Z,2.28
2024-05-09T16:40:42.974Z,1.73
2024-05-09T16:45:46.006Z,1.75
2024-05-09T16:50:50.532Z,1.85
2024-05-09T16:55:54.529Z,1.80
2024-05-09T17:00:58.601Z,1.98
2024-05-09T17:06:04.596Z,1.80
2024-05-09T17:11:07.646Z,1.80
2024-05-09T17:16:11.238Z,1.83
2024-05-09T17:21:15.703Z,1.70
2024-05-09T17:26:18.742Z,1.40
2024-05-09T17:31:21.924Z,1.20
2024-05-09T17:36:25.875Z,1.30
2024-05-09T17:41:28.793Z,1.33
2024-05-09T17:46:31.704Z,1.27
2024-05-09T17:51:36.348Z,1.52
2024-05-09T17:56:39.334Z,1.83
2024-05-09T18:01:42.511Z,1.40
2024-05-09T18:06:47.443Z,1.97
2024-05-09T18:11:51.115Z,1.58
2024-05-09T18:16:54.311Z,1.73
2024-05-09T18:21:57.598Z,2.05
2024-05-09T18:27:00.628Z,2.00
2024-05-09T18:32:04.158Z,2.33
2024-05-09T18:37:07.493Z,2.30
2024-05-09T18:42:10.533Z,2.63
2024-05-09T18:47:15.977Z,2.80
2024-05-09T18:52:21.850Z,2.45
2024-05-09T18:57:25.675Z,3.00
2024-05-09T19:02:29.388Z,2.42
2024-05-09T19:07:33.295Z,2.80
2024-05-09T19:12:36.476Z,2.45
2024-05-09T19:17:39.450Z,2.63
2024-05-09T19:22:42.449Z,2.78
2024-05-09T19:27:46.313Z,2.70
2024-05-09T19:32:49.350Z,2.80
2024-05-09T19:37:53.600Z,2.75
2024-05-09T19:42:56.761Z,2.83
2024-05-09T19:47:59.816Z,2.97
2024-05-09T19:53:03.322Z,3.10
2024-05-09T19:58:07.902Z,3.03
2024-05-09T20:03:12.739Z,2.90
2024-05-09T20:08:16.912Z,3.08
2024-05-09T20:13:20.118Z,3.08
2024-05-09T20:18:23.361Z,3.00
2024-05-09T20:23:26.831Z,3.45
2024-05-09T20:28:30.482Z,3.00
2024-05-09T20:33:33.715Z,3.22
2024-05-09T20:38:37.633Z,2.80
2024-05-09T20:43:40.585Z,2.80
2024-05-09T20:48:43.784Z,2.92
2024-05-09T20:53:47.619Z,3.00
2024-05-09T20:58:50.694Z,3.03
2024-05-09T21:03:53.670Z,3.03
2024-05-09T21:08:58.839Z,3.05
2024-05-09T21:14:01.669Z,3.10
2024-05-09T21:19:05.316Z,2.75
2024-05-09T21:24:09.206Z,3.05
2024-05-09T21:29:12.522Z,2.97
2024-05-09T21:34:15.726Z,2.90
2024-05-09T21:39:18.857Z,3.08
2024-05-09T21:44:22.498Z,2.70
2024-05-09T21:49:26.056Z,2.60
2024-05-09T21:54:30.815Z,3.38
2024-05-09T21:59:34.341Z,3.10
2024-05-09T22:04:37.601Z,3.03
2024-05-09T22:09:45.729Z,3.05
2024-05-09T22:14:48.736Z,2.90
2024-05-09T22:19:51.954Z,3.22
2024-05-09T22:24:55.910Z,3.20
2024-05-09T22:29:58.925Z,3.53
2024-05-09T22:35:02.294Z,3.47
2024-05-09T22:40:14.862Z,3.67
2024-05-09T22:45:20.646Z,3.42
2024-05-09T22:50:27.056Z,3.17
2024-05-09T22:55:35.413Z,3.40
2024-05-09T23:00:38.575Z,3.63
2024-05-09T23:05:42.172Z,3.92
2024-05-09T23:10:45.193Z,3.35
2024-05-09T23:15:49.070Z,3.10
2024-05-09T23:20:53.074Z,3.33
2024-05-09T23:25:56.107Z,3.10
2024-05-09T23:30:59.598Z,3.20
2024-05-09T23:36:03.180Z,2.80
2024-05-09T23:41:07.103Z,2.90
2024-05-09T23:46:11.308Z,2.95
2024-05-09T23:51:15.804Z,2.63
2024-05-09T23:56:21.520Z,2.90
